sensor_id;sensor_type;location;lat;lon;timestamp;temperature;humidity
5009;DHT22;2523;51.058;6.922;2022-09-25T00:01:23;14.40;99.90
5009;DHT22;2523;51.058;6.922;2022-09-25T00:03:49;14.40;99.90
5009;DHT22;2523;51.058;6.922;2022-09-25T00:06:17;14.30;99.90
5009;DHT22;2523;51.058;6.922;2022-09-25T00:08:44;14.40;99.90
5009;DHT22;2523;51.058;6.922;2022-09-25T00:11:12;14.40;99.90
5009;DHT22;2523;51.058;6.922;2022-09-25T00:13:38;14.40;99.90
5009;DHT22;2523;51.058;6.922;2022-09-25T00:16:05;14.40;99.90
5009;DHT22;2523;51.058;6.922;2022-09-25T00:18:31;14.40;99.90
5009;DHT22;2523;51.058;6.922;2022-09-25T00:21:16;14.30;99.90
5009;DHT22;2523;51.058;6.922;2022-09-25T00:23:43;14.30;99.90
5009;DHT22;2523;51.058;6.922;2022-09-25T00:26:14;14.30;99.90
5009;DHT22;2523;51.058;6.922;2022-09-25T00:28:41;14.30;99.90
5009;DHT22;2523;51.058;6.922;2022-09-25T00:31:08;14.30;99.90
5009;DHT22;2523;51.058;6.922;2022-09-25T00:33:35;14.30;99.90
5009;DHT22;2523;51.058;6.922;2022-09-25T00:36:02;14.30;99.90
5009;DHT22;2523;51.058;6.922;2022-09-25T00:38:29;14.40;99.90
5009;DHT22;2523;51.058;6.922;2022-09-25T00:40:56;14.30;99.90
5009;DHT22;2523;51.058;6.922;2022-09-25T00:46:37;14.30;99.90
5009;DHT22;2523;51.058;6.922;2022-09-25T00:49:09;14.30;99.90
5009;DHT22;2523;51.058;6.922;2022-09-25T00:51:47;14.30;99.90
5009;DHT22;2523;51.058;6.922;2022-09-25T00:54:18;14.30;99.90
5009;DHT22;2523;51.058;6.922;2022-09-25T00:56:48;14.40;99.90
5009;DHT22;2523;51.058;6.922;2022-09-25T00:59:29;14.30;99.90
5009;DHT22;2523;51.058;6.922;2022-09-25T01:01:55;14.30;99.90
5009;DHT22;2523;51.058;6.922;2022-09-25T01:04:22;14.40;99.90
5009;DHT22;2523;51.058;6.922;2022-09-25T01:06:48;14.30;99.90
5009;DHT22;2523;51.058;6.922;2022-09-25T01:09:15;14.40;99.90
5009;DHT22;2523;51.058;6.922;2022-09-25T01:11:41;14.30;99.90
5009;DHT22;2523;51.058;6.922;2022-09-25T01:14:07;14.30;99.90
5009;DHT22;2523;51.058;6.922;2022-09-25T01:17:01;14.40;99.90
5009;DHT22;2523;51.058;6.922;2022-09-25T01:25:33;14.30;99.90
5009;DHT22;2523;51.058;6.922;2022-09-25T01:31:08;14.30;99.90
5009;DHT22;2523;51.058;6.922;2022-09-25T01:33:54;14.30;99.90
5009;DHT22;2523;51.058;6.922;2022-09-25T01:36:27;14.30;99.90
5009;DHT22;2523;51.058;6.922;2022-09-25T01:39:10;14.30;99.90
5009;DHT22;2523;51.058;6.922;2022-09-25T01:44:31;14.30;99.90
5009;DHT22;2523;51.058;6.922;2022-09-25T01:47:08;14.20;99.90
5009;DHT22;2523;51.058;6.922;2022-09-25T01:49:38;14.20;99.90
5009;DHT22;2523;51.058;6.922;2022-09-25T01:52:11;14.20;99.90
5009;DHT22;2523;51.058;6.922;2022-09-25T01:54:45;14.20;99.90
5009;DHT22;2523;51.058;6.922;2022-09-25T01:57:19;14.20;99.90
5009;DHT22;2523;51.058;6.922;2022-09-25T01:59:56;14.20;99.90
5009;DHT22;2523;51.058;6.922;2022-09-25T02:02:30;14.10;99.90
5009;DHT22;2523;51.058;6.922;2022-09-25T02:05:08;14.10;99.90
5009;DHT22;2523;51.058;6.922;2022-09-25T02:07:41;14.10;99.90
5009;DHT22;2523;51.058;6.922;2022-09-25T02:10:14;14.10;99.90
5009;DHT22;2523;51.058;6.922;2022-09-25T02:12:48;14.10;99.90
5009;DHT22;2523;51.058;6.922;2022-09-25T02:15:28;14.10;99.90
5009;DHT22;2523;51.058;6.922;2022-09-25T02:17:58;14.10;99.90
5009;DHT22;2523;51.058;6.922;2022-09-25T02:20:46;14.10;99.90
5009;DHT22;2523;51.058;6.922;2022-09-25T02:23:28;14.10;99.90
5009;DHT22;2523;51.058;6.922;2022-09-25T02:26:06;14.10;99.90
5009;DHT22;2523;51.058;6.922;2022-09-25T02:28:34;14.10;99.90
5009;DHT22;2523;51.058;6.922;2022-09-25T02:31:02;14.00;99.90
5009;DHT22;2523;51.058;6.922;2022-09-25T02:33:29;14.00;99.90
5009;DHT22;2523;51.058;6.922;2022-09-25T02:35:55;14.00;99.90
5009;DHT22;2523;51.058;6.922;2022-09-25T02:38:22;13.90;99.90
5009;DHT22;2523;51.058;6.922;2022-09-25T02:40:56;13.90;99.90
5009;DHT22;2523;51.058;6.922;2022-09-25T02:46:42;13.90;99.90
5009;DHT22;2523;51.058;6.922;2022-09-25T02:49:19;14.00;99.90
5009;DHT22;2523;51.058;6.922;2022-09-25T02:52:42;13.90;99.90
5009;DHT22;2523;51.058;6.922;2022-09-25T02:55:02;14.00;99.90
5009;DHT22;2523;51.058;6.922;2022-09-25T03:00:38;13.90;99.90
5009;DHT22;2523;51.058;6.922;2022-09-25T03:03:07;13.90;99.90
5009;DHT22;2523;51.058;6.922;2022-09-25T03:05:35;13.90;99.90
5009;DHT22;2523;51.058;6.922;2022-09-25T03:08:01;13.90;99.90
5009;DHT22;2523;51.058;6.922;2022-09-25T03:10:45;13.90;99.90
5009;DHT22;2523;51.058;6.922;2022-09-25T03:13:22;13.90;99.90
5009;DHT22;2523;51.058;6.922;2022-09-25T03:16:12;13.90;99.90
5009;DHT22;2523;51.058;6.922;2022-09-25T03:18:40;13.90;99.90
5009;DHT22;2523;51.058;6.922;2022-09-25T03:21:05;13.90;99.90
5009;DHT22;2523;51.058;6.922;2022-09-25T03:23:31;13.90;99.90
5009;DHT22;2523;51.058;6.922;2022-09-25T03:25:57;13.90;99.90
5009;DHT22;2523;51.058;6.922;2022-09-25T03:28:23;13.90;99.90
5009;DHT22;2523;51.058;6.922;2022-09-25T03:30:57;13.90;99.90
5009;DHT22;2523;51.058;6.922;2022-09-25T03:33:23;13.90;99.90
5009;DHT22;2523;51.058;6.922;2022-09-25T03:38:26;13.80;99.90
5009;DHT22;2523;51.058;6.922;2022-09-25T03:40:52;13.80;99.90
5009;DHT22;2523;51.058;6.922;2022-09-25T03:43:18;13.80;99.90
5009;DHT22;2523;51.058;6.922;2022-09-25T03:45:43;13.80;99.90
5009;DHT22;2523;51.058;6.922;2022-09-25T03:48:09;13.70;99.90
5009;DHT22;2523;51.058;6.922;2022-09-25T03:50:34;13.70;99.90
5009;DHT22;2523;51.058;6.922;2022-09-25T03:53:00;13.70;99.90
5009;DHT22;2523;51.058;6.922;2022-09-25T03:55:25;13.70;99.90
5009;DHT22;2523;51.058;6.922;2022-09-25T03:57:51;13.60;99.90
5009;DHT22;2523;51.058;6.922;2022-09-25T04:00:16;13.70;99.90
5009;DHT22;2523;51.058;6.922;2022-09-25T04:02:42;13.60;99.90
5009;DHT22;2523;51.058;6.922;2022-09-25T04:05:08;13.60;99.90
5009;DHT22;2523;51.058;6.922;2022-09-25T04:07:34;13.60;99.90
5009;DHT22;2523;51.058;6.922;2022-09-25T04:10:00;13.60;99.90
5009;DHT22;2523;51.058;6.922;2022-09-25T04:12:25;13.60;99.90
5009;DHT22;2523;51.058;6.922;2022-09-25T04:14:51;13.60;99.90
5009;DHT22;2523;51.058;6.922;2022-09-25T04:17:17;13.60;99.90
5009;DHT22;2523;51.058;6.922;2022-09-25T04:19:43;13.70;99.90
5009;DHT22;2523;51.058;6.922;2022-09-25T04:22:08;13.60;99.90
5009;DHT22;2523;51.058;6.922;2022-09-25T04:24:34;13.70;99.90
5009;DHT22;2523;51.058;6.922;2022-09-25T04:27:20;13.60;99.90
5009;DHT22;2523;51.058;6.922;2022-09-25T04:29:47;13.60;99.90
5009;DHT22;2523;51.058;6.922;2022-09-25T04:32:14;13.60;99.90
5009;DHT22;2523;51.058;6.922;2022-09-25T04:34:59;13.60;99.90
5009;DHT22;2523;51.058;6.922;2022-09-25T04:37:25;13.60;99.90
5009;DHT22;2523;51.058;6.922;2022-09-25T04:39:54;13.60;99.90
5009;DHT22;2523;51.058;6.922;2022-09-25T04:42:20;13.60;99.90
5009;DHT22;2523;51.058;6.922;2022-09-25T04:44:55;13.60;99.90
5009;DHT22;2523;51.058;6.922;2022-09-25T04:47:22;13.60;99.90
5009;DHT22;2523;51.058;6.922;2022-09-25T04:49:48;13.60;99.90
5009;DHT22;2523;51.058;6.922;2022-09-25T04:52:14;13.60;99.90
5009;DHT22;2523;51.058;6.922;2022-09-25T04:54:41;13.60;99.90
5009;DHT22;2523;51.058;6.922;2022-09-25T04:57:13;13.60;99.90
5009;DHT22;2523;51.058;6.922;2022-09-25T04:59:40;13.60;99.90
5009;DHT22;2523;51.058;6.922;2022-09-25T05:02:05;13.60;99.90
5009;DHT22;2523;51.058;6.922;2022-09-25T05:04:31;13.50;99.90
5009;DHT22;2523;51.058;6.922;2022-09-25T05:06:56;13.50;99.90
5009;DHT22;2523;51.058;6.922;2022-09-25T05:09:22;13.50;99.90
5009;DHT22;2523;51.058;6.922;2022-09-25T05:11:47;13.50;99.90
5009;DHT22;2523;51.058;6.922;2022-09-25T05:14:13;13.50;99.90
5009;DHT22;2523;51.058;6.922;2022-09-25T05:16:38;13.50;99.90
5009;DHT22;2523;51.058;6.922;2022-09-25T05:19:04;13.60;99.90
5009;DHT22;2523;51.058;6.922;2022-09-25T05:21:30;13.50;99.90
5009;DHT22;2523;51.058;6.922;2022-09-25T05:23:57;13.50;99.90
5009;DHT22;2523;51.058;6.922;2022-09-25T05:26:22;13.50;99.90
5009;DHT22;2523;51.058;6.922;2022-09-25T05:28:48;13.40;99.90
5009;DHT22;2523;51.058;6.922;2022-09-25T05:31:15;13.40;99.90
5009;DHT22;2523;51.058;6.922;2022-09-25T05:33:41;13.30;99.90
5009;DHT22;2523;51.058;6.922;2022-09-25T05:36:09;13.20;99.90
5009;DHT22;2523;51.058;6.922;2022-09-25T05:38:37;13.30;99.90
5009;DHT22;2523;51.058;6.922;2022-09-25T05:41:04;13.10;99.90
5009;DHT22;2523;51.058;6.922;2022-09-25T05:43:31;13.10;99.90
5009;DHT22;2523;51.058;6.922;2022-09-25T05:45:57;13.10;99.90
5009;DHT22;2523;51.058;6.922;2022-09-25T05:48:24;13.10;99.90
5009;DHT22;2523;51.058;6.922;2022-09-25T05:50:54;13.10;99.90
5009;DHT22;2523;51.058;6.922;2022-09-25T05:53:20;13.00;99.90
5009;DHT22;2523;51.058;6.922;2022-09-25T05:55:57;13.00;99.90
5009;DHT22;2523;51.058;6.922;2022-09-25T05:58:23;13.00;99.90
5009;DHT22;2523;51.058;6.922;2022-09-25T06:00:49;12.90;99.90
5009;DHT22;2523;51.058;6.922;2022-09-25T06:03:14;13.00;99.90
5009;DHT22;2523;51.058;6.922;2022-09-25T06:05:40;13.00;99.90
5009;DHT22;2523;51.058;6.922;2022-09-25T06:08:07;12.90;99.90
5009;DHT22;2523;51.058;6.922;2022-09-25T06:10:34;12.90;99.90
5009;DHT22;2523;51.058;6.922;2022-09-25T06:13:01;12.90;99.90
5009;DHT22;2523;51.058;6.922;2022-09-25T06:15:33;12.90;99.90
5009;DHT22;2523;51.058;6.922;2022-09-25T06:18:05;12.80;99.90
5009;DHT22;2523;51.058;6.922;2022-09-25T06:20:31;12.80;99.90
5009;DHT22;2523;51.058;6.922;2022-09-25T06:22:57;12.80;99.90
5009;DHT22;2523;51.058;6.922;2022-09-25T06:25:24;12.80;99.90
5009;DHT22;2523;51.058;6.922;2022-09-25T06:27:55;12.80;99.90
5009;DHT22;2523;51.058;6.922;2022-09-25T06:30:22;12.80;99.90
5009;DHT22;2523;51.058;6.922;2022-09-25T06:32:48;12.70;99.90
5009;DHT22;2523;51.058;6.922;2022-09-25T06:35:15;12.70;99.90
5009;DHT22;2523;51.058;6.922;2022-09-25T06:37:41;12.80;99.90
5009;DHT22;2523;51.058;6.922;2022-09-25T06:40:07;12.80;99.90
5009;DHT22;2523;51.058;6.922;2022-09-25T06:42:33;12.80;99.90
5009;DHT22;2523;51.058;6.922;2022-09-25T06:45:00;12.80;99.90
5009;DHT22;2523;51.058;6.922;2022-09-25T06:47:25;12.70;99.90
5009;DHT22;2523;51.058;6.922;2022-09-25T06:49:51;12.70;99.90
5009;DHT22;2523;51.058;6.922;2022-09-25T06:52:16;12.70;99.90
5009;DHT22;2523;51.058;6.922;2022-09-25T06:54:42;12.70;99.90
5009;DHT22;2523;51.058;6.922;2022-09-25T06:57:08;12.70;99.90
5009;DHT22;2523;51.058;6.922;2022-09-25T06:59:35;12.70;99.90
5009;DHT22;2523;51.058;6.922;2022-09-25T07:02:01;12.70;99.90
5009;DHT22;2523;51.058;6.922;2022-09-25T07:04:46;12.80;99.90
5009;DHT22;2523;51.058;6.922;2022-09-25T07:07:19;12.80;99.90
5009;DHT22;2523;51.058;6.922;2022-09-25T07:09:45;12.80;99.90
5009;DHT22;2523;51.058;6.922;2022-09-25T07:12:13;12.90;99.90
5009;DHT22;2523;51.058;6.922;2022-09-25T07:14:38;12.90;99.90
5009;DHT22;2523;51.058;6.922;2022-09-25T07:17:06;13.00;99.90
5009;DHT22;2523;51.058;6.922;2022-09-25T07:19:32;13.00;99.90
5009;DHT22;2523;51.058;6.922;2022-09-25T07:21:58;13.10;99.90
5009;DHT22;2523;51.058;6.922;2022-09-25T07:24:23;13.10;99.90
5009;DHT22;2523;51.058;6.922;2022-09-25T07:26:49;13.10;99.90
5009;DHT22;2523;51.058;6.922;2022-09-25T07:29:17;13.20;99.90
5009;DHT22;2523;51.058;6.922;2022-09-25T07:31:42;13.30;99.90
5009;DHT22;2523;51.058;6.922;2022-09-25T07:34:08;13.30;99.90
5009;DHT22;2523;51.058;6.922;2022-09-25T07:36:34;13.30;99.90
5009;DHT22;2523;51.058;6.922;2022-09-25T07:39:03;13.40;99.90
5009;DHT22;2523;51.058;6.922;2022-09-25T07:41:28;13.50;99.90
5009;DHT22;2523;51.058;6.922;2022-09-25T07:43:55;13.60;99.90
5009;DHT22;2523;51.058;6.922;2022-09-25T07:46:25;13.70;99.90
5009;DHT22;2523;51.058;6.922;2022-09-25T07:48:51;13.80;99.90
5009;DHT22;2523;51.058;6.922;2022-09-25T07:51:16;13.90;99.90
5009;DHT22;2523;51.058;6.922;2022-09-25T07:53:42;14.00;99.90
5009;DHT22;2523;51.058;6.922;2022-09-25T07:56:10;14.10;99.90
5009;DHT22;2523;51.058;6.922;2022-09-25T07:58:36;14.10;99.90
5009;DHT22;2523;51.058;6.922;2022-09-25T08:01:04;14.20;99.90
5009;DHT22;2523;51.058;6.922;2022-09-25T08:03:30;14.30;99.90
5009;DHT22;2523;51.058;6.922;2022-09-25T08:06:01;14.30;99.90
5009;DHT22;2523;51.058;6.922;2022-09-25T08:08:27;14.50;99.90
5009;DHT22;2523;51.058;6.922;2022-09-25T08:11:27;14.60;99.90
5009;DHT22;2523;51.058;6.922;2022-09-25T08:13:47;14.70;99.90
5009;DHT22;2523;51.058;6.922;2022-09-25T08:16:16;14.80;99.90
5009;DHT22;2523;51.058;6.922;2022-09-25T08:18:45;14.90;99.90
5009;DHT22;2523;51.058;6.922;2022-09-25T08:21:12;15.10;99.90
5009;DHT22;2523;51.058;6.922;2022-09-25T08:23:42;15.20;99.90
5009;DHT22;2523;51.058;6.922;2022-09-25T08:26:08;15.30;99.90
5009;DHT22;2523;51.058;6.922;2022-09-25T08:28:34;15.50;99.90
5009;DHT22;2523;51.058;6.922;2022-09-25T08:31:00;15.50;99.90
5009;DHT22;2523;51.058;6.922;2022-09-25T08:33:28;15.40;99.90
5009;DHT22;2523;51.058;6.922;2022-09-25T08:35:59;15.40;99.90
5009;DHT22;2523;51.058;6.922;2022-09-25T08:38:25;15.40;99.90
5009;DHT22;2523;51.058;6.922;2022-09-25T08:40:57;15.20;99.90
5009;DHT22;2523;51.058;6.922;2022-09-25T08:43:25;15.10;99.90
5009;DHT22;2523;51.058;6.922;2022-09-25T08:45:53;15.00;99.90
5009;DHT22;2523;51.058;6.922;2022-09-25T08:48:54;14.90;99.90
5009;DHT22;2523;51.058;6.922;2022-09-25T08:51:35;14.70;99.90
5009;DHT22;2523;51.058;6.922;2022-09-25T08:54:03;14.60;99.90
5009;DHT22;2523;51.058;6.922;2022-09-25T08:56:30;14.40;99.90
5009;DHT22;2523;51.058;6.922;2022-09-25T08:59:26;14.30;99.90
5009;DHT22;2523;51.058;6.922;2022-09-25T09:01:59;14.50;99.90
5009;DHT22;2523;51.058;6.922;2022-09-25T09:04:36;14.80;99.90
5009;DHT22;2523;51.058;6.922;2022-09-25T09:07:26;15.40;99.90
5009;DHT22;2523;51.058;6.922;2022-09-25T09:10:01;15.90;99.90
5009;DHT22;2523;51.058;6.922;2022-09-25T09:12:35;16.30;99.90
5009;DHT22;2523;51.058;6.922;2022-09-25T09:17:41;16.90;99.90
5009;DHT22;2523;51.058;6.922;2022-09-25T09:20:16;16.90;99.90
5009;DHT22;2523;51.058;6.922;2022-09-25T09:22:46;16.90;99.90
5009;DHT22;2523;51.058;6.922;2022-09-25T09:25:37;17.20;99.90
5009;DHT22;2523;51.058;6.922;2022-09-25T09:33:40;18.00;99.90
5009;DHT22;2523;51.058;6.922;2022-09-25T09:36:42;17.80;99.90
5009;DHT22;2523;51.058;6.922;2022-09-25T09:39:32;17.50;99.90
5009;DHT22;2523;51.058;6.922;2022-09-25T09:42:21;17.20;99.90
5009;DHT22;2523;51.058;6.922;2022-09-25T09:45:30;17.20;99.90
5009;DHT22;2523;51.058;6.922;2022-09-25T09:53:21;18.20;99.90
5009;DHT22;2523;51.058;6.922;2022-09-25T09:55:52;18.50;87.80
5009;DHT22;2523;51.058;6.922;2022-09-25T09:58:47;19.20;93.80
5009;DHT22;2523;51.058;6.922;2022-09-25T10:01:18;19.90;83.00
5009;DHT22;2523;51.058;6.922;2022-09-25T10:03:46;20.20;59.30
5009;DHT22;2523;51.058;6.922;2022-09-25T10:06:15;20.30;55.60
5009;DHT22;2523;51.058;6.922;2022-09-25T10:08:41;20.10;53.00
5009;DHT22;2523;51.058;6.922;2022-09-25T10:11:17;20.30;50.00
5009;DHT22;2523;51.058;6.922;2022-09-25T10:13:44;20.10;47.90
5009;DHT22;2523;51.058;6.922;2022-09-25T10:16:14;20.20;45.70
5009;DHT22;2523;51.058;6.922;2022-09-25T10:19:04;20.20;48.30
5009;DHT22;2523;51.058;6.922;2022-09-25T10:21:45;20.70;48.60
5009;DHT22;2523;51.058;6.922;2022-09-25T10:24:44;21.10;50.10
5009;DHT22;2523;51.058;6.922;2022-09-25T10:27:29;21.60;43.80
5009;DHT22;2523;51.058;6.922;2022-09-25T10:35:20;21.70;39.50
5009;DHT22;2523;51.058;6.922;2022-09-25T10:37:57;21.80;39.40
5009;DHT22;2523;51.058;6.922;2022-09-25T10:43:19;21.20;40.10
5009;DHT22;2523;51.058;6.922;2022-09-25T10:45:47;20.90;39.10
5009;DHT22;2523;51.058;6.922;2022-09-25T10:51:15;20.50;39.80
5009;DHT22;2523;51.058;6.922;2022-09-25T10:53:46;20.70;40.50
5009;DHT22;2523;51.058;6.922;2022-09-25T10:56:19;20.20;40.80
5009;DHT22;2523;51.058;6.922;2022-09-25T10:58:57;19.90;42.80
5009;DHT22;2523;51.058;6.922;2022-09-25T11:01:37;20.20;43.80
5009;DHT22;2523;51.058;6.922;2022-09-25T11:04:11;20.80;42.50
5009;DHT22;2523;51.058;6.922;2022-09-25T11:06:50;21.10;36.20
5009;DHT22;2523;51.058;6.922;2022-09-25T11:09:22;21.80;37.50
5009;DHT22;2523;51.058;6.922;2022-09-25T11:11:50;22.10;34.70
5009;DHT22;2523;51.058;6.922;2022-09-25T11:14:26;22.60;36.50
5009;DHT22;2523;51.058;6.922;2022-09-25T11:16:58;22.10;34.60
5009;DHT22;2523;51.058;6.922;2022-09-25T11:19:44;21.30;33.40
5009;DHT22;2523;51.058;6.922;2022-09-25T11:22:27;20.40;35.30
5009;DHT22;2523;51.058;6.922;2022-09-25T11:25:16;19.70;37.30
5009;DHT22;2523;51.058;6.922;2022-09-25T11:27:48;19.20;38.50
5009;DHT22;2523;51.058;6.922;2022-09-25T11:30:18;19.30;38.50
5009;DHT22;2523;51.058;6.922;2022-09-25T11:40:54;22.30;33.10
5009;DHT22;2523;51.058;6.922;2022-09-25T11:46:38;23.20;30.00
5009;DHT22;2523;51.058;6.922;2022-09-25T11:49:42;22.70;30.00
5009;DHT22;2523;51.058;6.922;2022-09-25T11:52:20;22.20;31.30
5009;DHT22;2523;51.058;6.922;2022-09-25T12:03:51;22.50;30.90
5009;DHT22;2523;51.058;6.922;2022-09-25T12:15:01;20.70;34.90
5009;DHT22;2523;51.058;6.922;2022-09-25T12:17:45;22.00;33.30
5009;DHT22;2523;51.058;6.922;2022-09-25T12:32:00;26.90;21.30
5009;DHT22;2523;51.058;6.922;2022-09-25T12:37:44;23.70;25.90
5009;DHT22;2523;51.058;6.922;2022-09-25T12:42:53;21.50;28.70
5009;DHT22;2523;51.058;6.922;2022-09-25T12:45:44;20.90;30.50
5009;DHT22;2523;51.058;6.922;2022-09-25T12:48:15;21.80;30.00
5009;DHT22;2523;51.058;6.922;2022-09-25T12:51:02;22.90;28.90
5009;DHT22;2523;51.058;6.922;2022-09-25T12:53:37;23.30;27.50
5009;DHT22;2523;51.058;6.922;2022-09-25T12:59:14;22.90;24.50
5009;DHT22;2523;51.058;6.922;2022-09-25T13:01:48;22.10;26.40
5009;DHT22;2523;51.058;6.922;2022-09-25T13:07:00;21.30;28.60
5009;DHT22;2523;51.058;6.922;2022-09-25T13:09:43;20.90;28.80
5009;DHT22;2523;51.058;6.922;2022-09-25T13:12:17;21.30;29.30
5009;DHT22;2523;51.058;6.922;2022-09-25T13:14:50;21.80;28.80
5009;DHT22;2523;51.058;6.922;2022-09-25T13:17:17;22.10;28.60
5009;DHT22;2523;51.058;6.922;2022-09-25T13:19:43;21.90;27.70
5009;DHT22;2523;51.058;6.922;2022-09-25T13:22:16;21.40;28.10
5009;DHT22;2523;51.058;6.922;2022-09-25T13:24:49;20.60;27.70
5009;DHT22;2523;51.058;6.922;2022-09-25T13:27:21;20.40;29.10
5009;DHT22;2523;51.058;6.922;2022-09-25T13:29:58;20.40;29.90
5009;DHT22;2523;51.058;6.922;2022-09-25T13:32:27;20.50;29.80
5009;DHT22;2523;51.058;6.922;2022-09-25T13:35:16;20.60;28.80
5009;DHT22;2523;51.058;6.922;2022-09-25T13:37:42;20.40;28.40
5009;DHT22;2523;51.058;6.922;2022-09-25T13:40:23;20.20;29.00
5009;DHT22;2523;51.058;6.922;2022-09-25T13:43:20;20.00;30.50
5009;DHT22;2523;51.058;6.922;2022-09-25T13:45:47;19.60;31.30
5009;DHT22;2523;51.058;6.922;2022-09-25T13:48:33;19.50;31.50
5009;DHT22;2523;51.058;6.922;2022-09-25T13:54:40;19.10;34.10
5009;DHT22;2523;51.058;6.922;2022-09-25T13:56:47;19.00;34.80
5009;DHT22;2523;51.058;6.922;2022-09-25T14:01:57;18.70;37.10
5009;DHT22;2523;51.058;6.922;2022-09-25T14:04:28;18.40;37.00
5009;DHT22;2523;51.058;6.922;2022-09-25T14:07:03;18.30;34.90
5009;DHT22;2523;51.058;6.922;2022-09-25T14:09:33;18.40;34.90
5009;DHT22;2523;51.058;6.922;2022-09-25T14:14:41;18.40;31.50
5009;DHT22;2523;51.058;6.922;2022-09-25T14:17:14;18.40;32.10
5009;DHT22;2523;51.058;6.922;2022-09-25T14:19:44;18.50;30.80
5009;DHT22;2523;51.058;6.922;2022-09-25T14:22:18;18.40;31.40
5009;DHT22;2523;51.058;6.922;2022-09-25T14:24:45;18.20;33.10
5009;DHT22;2523;51.058;6.922;2022-09-25T14:27:22;18.10;34.60
5009;DHT22;2523;51.058;6.922;2022-09-25T14:29:48;17.90;36.80
5009;DHT22;2523;51.058;6.922;2022-09-25T14:43:51;17.10;48.00
5009;DHT22;2523;51.058;6.922;2022-09-25T14:46:19;17.00;53.30
5009;DHT22;2523;51.058;6.922;2022-09-25T14:48:53;16.90;52.10
5009;DHT22;2523;51.058;6.922;2022-09-25T14:51:22;16.70;58.60
5009;DHT22;2523;51.058;6.922;2022-09-25T14:53:57;16.60;78.40
5009;DHT22;2523;51.058;6.922;2022-09-25T14:56:24;16.60;85.00
5009;DHT22;2523;51.058;6.922;2022-09-25T14:58:58;16.60;83.90
5009;DHT22;2523;51.058;6.922;2022-09-25T15:01:25;16.60;93.30
5009;DHT22;2523;51.058;6.922;2022-09-25T15:04:03;16.70;92.00
5009;DHT22;2523;51.058;6.922;2022-09-25T15:06:31;16.70;89.40
5009;DHT22;2523;51.058;6.922;2022-09-25T15:08:58;16.80;70.40
5009;DHT22;2523;51.058;6.922;2022-09-25T15:11:38;16.80;68.10
5009;DHT22;2523;51.058;6.922;2022-09-25T15:14:15;16.90;83.20
5009;DHT22;2523;51.058;6.922;2022-09-25T15:16:41;17.00;93.40
5009;DHT22;2523;51.058;6.922;2022-09-25T15:19:34;17.00;99.00
5009;DHT22;2523;51.058;6.922;2022-09-25T15:22:01;17.00;90.20
5009;DHT22;2523;51.058;6.922;2022-09-25T15:24:33;17.20;66.60
5009;DHT22;2523;51.058;6.922;2022-09-25T15:27:02;17.30;55.50
5009;DHT22;2523;51.058;6.922;2022-09-25T15:29:37;17.40;51.30
5009;DHT22;2523;51.058;6.922;2022-09-25T15:32:05;17.60;45.90
5009;DHT22;2523;51.058;6.922;2022-09-25T15:34:32;17.70;46.10
5009;DHT22;2523;51.058;6.922;2022-09-25T15:37:27;17.90;47.40
5009;DHT22;2523;51.058;6.922;2022-09-25T15:39:54;18.00;46.00
5009;DHT22;2523;51.058;6.922;2022-09-25T15:42:20;18.00;44.50
5009;DHT22;2523;51.058;6.922;2022-09-25T15:44:47;18.10;49.40
5009;DHT22;2523;51.058;6.922;2022-09-25T15:50:04;17.90;58.30
5009;DHT22;2523;51.058;6.922;2022-09-25T15:52:32;17.80;55.00
5009;DHT22;2523;51.058;6.922;2022-09-25T15:55:08;17.80;66.30
5009;DHT22;2523;51.058;6.922;2022-09-25T15:57:35;17.70;65.80
5009;DHT22;2523;51.058;6.922;2022-09-25T16:00:06;17.60;74.40
5009;DHT22;2523;51.058;6.922;2022-09-25T16:02:58;17.50;64.90
5009;DHT22;2523;51.058;6.922;2022-09-25T16:05:46;17.50;65.60
5009;DHT22;2523;51.058;6.922;2022-09-25T16:08:27;17.40;76.20
5009;DHT22;2523;51.058;6.922;2022-09-25T16:13:28;17.50;68.80
5009;DHT22;2523;51.058;6.922;2022-09-25T16:15:54;17.50;78.20
5009;DHT22;2523;51.058;6.922;2022-09-25T16:18:38;17.50;69.60
5009;DHT22;2523;51.058;6.922;2022-09-25T16:21:30;17.50;73.90
5009;DHT22;2523;51.058;6.922;2022-09-25T16:24:03;17.50;82.30
5009;DHT22;2523;51.058;6.922;2022-09-25T16:26:38;17.50;85.00
5009;DHT22;2523;51.058;6.922;2022-09-25T16:31:40;17.50;79.50
5009;DHT22;2523;51.058;6.922;2022-09-25T16:34:24;17.40;84.50
5009;DHT22;2523;51.058;6.922;2022-09-25T16:36:52;17.30;84.50
5009;DHT22;2523;51.058;6.922;2022-09-25T16:39:36;17.30;88.60
5009;DHT22;2523;51.058;6.922;2022-09-25T16:44:47;17.20;99.90
5009;DHT22;2523;51.058;6.922;2022-09-25T16:47:19;17.10;99.90
5009;DHT22;2523;51.058;6.922;2022-09-25T16:49:46;17.00;99.90
5009;DHT22;2523;51.058;6.922;2022-09-25T16:52:16;16.90;95.80
5009;DHT22;2523;51.058;6.922;2022-09-25T16:54:45;16.80;99.90
5009;DHT22;2523;51.058;6.922;2022-09-25T16:57:12;16.70;84.10
5009;DHT22;2523;51.058;6.922;2022-09-25T16:59:41;16.70;82.70
5009;DHT22;2523;51.058;6.922;2022-09-25T17:02:20;16.60;82.80
5009;DHT22;2523;51.058;6.922;2022-09-25T17:04:46;16.60;86.10
5009;DHT22;2523;51.058;6.922;2022-09-25T17:07:12;16.60;88.40
5009;DHT22;2523;51.058;6.922;2022-09-25T17:09:39;16.50;91.40
5009;DHT22;2523;51.058;6.922;2022-09-25T17:12:19;16.50;96.00
5009;DHT22;2523;51.058;6.922;2022-09-25T17:14:46;16.40;96.70
5009;DHT22;2523;51.058;6.922;2022-09-25T17:17:14;16.30;97.80
5009;DHT22;2523;51.058;6.922;2022-09-25T17:19:41;16.20;99.90
5009;DHT22;2523;51.058;6.922;2022-09-25T17:22:08;16.20;99.90
5009;DHT22;2523;51.058;6.922;2022-09-25T17:24:34;16.10;99.90
5009;DHT22;2523;51.058;6.922;2022-09-25T17:26:59;16.00;99.90
5009;DHT22;2523;51.058;6.922;2022-09-25T17:29:26;15.90;99.90
5009;DHT22;2523;51.058;6.922;2022-09-25T17:31:52;15.90;99.90
5009;DHT22;2523;51.058;6.922;2022-09-25T17:34:20;15.80;99.90
5009;DHT22;2523;51.058;6.922;2022-09-25T17:36:50;15.80;99.90
5009;DHT22;2523;51.058;6.922;2022-09-25T17:39:16;15.70;99.90
5009;DHT22;2523;51.058;6.922;2022-09-25T17:41:41;15.60;99.90
5009;DHT22;2523;51.058;6.922;2022-09-25T17:44:12;15.60;99.90
5009;DHT22;2523;51.058;6.922;2022-09-25T17:46:39;15.50;99.90
5009;DHT22;2523;51.058;6.922;2022-09-25T17:49:05;15.40;99.90
5009;DHT22;2523;51.058;6.922;2022-09-25T17:51:31;15.30;99.90
5009;DHT22;2523;51.058;6.922;2022-09-25T17:53:57;15.30;99.90
5009;DHT22;2523;51.058;6.922;2022-09-25T17:56:25;15.20;99.90
5009;DHT22;2523;51.058;6.922;2022-09-25T17:58:52;15.10;99.90
5009;DHT22;2523;51.058;6.922;2022-09-25T18:01:22;15.00;99.90
5009;DHT22;2523;51.058;6.922;2022-09-25T18:03:52;15.00;99.90
5009;DHT22;2523;51.058;6.922;2022-09-25T18:06:18;14.90;99.90
5009;DHT22;2523;51.058;6.922;2022-09-25T18:08:47;14.90;99.90
5009;DHT22;2523;51.058;6.922;2022-09-25T18:11:14;14.80;99.90
5009;DHT22;2523;51.058;6.922;2022-09-25T18:13:40;14.80;99.90
5009;DHT22;2523;51.058;6.922;2022-09-25T18:16:16;14.70;99.90
5009;DHT22;2523;51.058;6.922;2022-09-25T18:18:44;14.70;99.90
5009;DHT22;2523;51.058;6.922;2022-09-25T18:21:28;14.60;99.90
5009;DHT22;2523;51.058;6.922;2022-09-25T18:24:13;14.60;99.90
5009;DHT22;2523;51.058;6.922;2022-09-25T18:26:40;14.60;99.90
5009;DHT22;2523;51.058;6.922;2022-09-25T18:29:05;14.50;99.90
5009;DHT22;2523;51.058;6.922;2022-09-25T18:31:31;14.50;99.90
5009;DHT22;2523;51.058;6.922;2022-09-25T18:33:57;14.50;99.90
5009;DHT22;2523;51.058;6.922;2022-09-25T18:36:23;14.50;99.90
5009;DHT22;2523;51.058;6.922;2022-09-25T18:38:49;14.40;99.90
5009;DHT22;2523;51.058;6.922;2022-09-25T18:41:15;14.40;99.90